sensor_id;sensor_type;location;lat;lon;timestamp;temperature;humidity
56761;DHT22;42633;44.494;11.356;2023-03-01T04:03:32;5.80;99.90
56761;DHT22;42633;44.494;11.356;2023-03-01T05:08:44;5.60;99.90
56761;DHT22;42633;44.494;11.356;2023-03-01T13:45:18;5.20;99.90
56761;DHT22;42633;44.494;11.356;2023-03-01T13:48:45;5.10;99.90
56761;DHT22;42633;44.494;11.356;2023-03-01T14:16:12;5.30;99.90
56761;DHT22;42633;44.494;11.356;2023-03-01T14:23:37;5.20;99.90
56761;DHT22;42633;44.494;11.356;2023-03-01T14:27:36;5.10;99.90
56761;DHT22;42633;44.494;11.356;2023-03-01T14:31:25;5.10;99.90
56761;DHT22;42633;44.494;11.356;2023-03-01T14:34:24;5.10;99.90
56761;DHT22;42633;44.494;11.356;2023-03-01T14:37:34;5.10;99.90
56761;DHT22;42633;44.494;11.356;2023-03-01T14:40:42;5.10;99.90
56761;DHT22;42633;44.494;11.356;2023-03-01T14:43:51;5.00;99.90
56761;DHT22;42633;44.494;11.356;2023-03-01T14:46:56;5.00;99.90
56761;DHT22;42633;44.494;11.356;2023-03-01T14:50:18;5.00;99.90
56761;DHT22;42633;44.494;11.356;2023-03-01T14:53:33;4.90;99.90
56761;DHT22;42633;44.494;11.356;2023-03-01T14:57:05;4.90;99.90
56761;DHT22;42633;44.494;11.356;2023-03-01T15:00:56;4.90;99.90
56761;DHT22;42633;44.494;11.356;2023-03-01T15:05:00;4.90;99.90
56761;DHT22;42633;44.494;11.356;2023-03-01T15:08:05;4.90;99.90
56761;DHT22;42633;44.494;11.356;2023-03-01T15:11:55;4.90;99.90
56761;DHT22;42633;44.494;11.356;2023-03-01T15:15:35;5.00;99.90
56761;DHT22;42633;44.494;11.356;2023-03-01T15:19:04;5.00;99.90
56761;DHT22;42633;44.494;11.356;2023-03-01T15:22:59;5.00;99.90
56761;DHT22;42633;44.494;11.356;2023-03-01T15:26:05;4.90;99.90
56761;DHT22;42633;44.494;11.356;2023-03-01T15:29:19;4.90;99.90
56761;DHT22;42633;44.494;11.356;2023-03-01T15:32:34;5.00;99.90
56761;DHT22;42633;44.494;11.356;2023-03-01T15:40:34;5.00;99.90
56761;DHT22;42633;44.494;11.356;2023-03-01T15:44:35;5.00;99.90
56761;DHT22;42633;44.494;11.356;2023-03-01T15:48:37;5.10;99.90
56761;DHT22;42633;44.494;11.356;2023-03-01T15:52:42;5.20;99.90
56761;DHT22;42633;44.494;11.356;2023-03-01T15:56:47;5.20;99.90
56761;DHT22;42633;44.494;11.356;2023-03-01T16:00:16;5.10;99.90
56761;DHT22;42633;44.494;11.356;2023-03-01T16:04:01;5.20;99.90
56761;DHT22;42633;44.494;11.356;2023-03-01T16:07:26;5.20;99.90
56761;DHT22;42633;44.494;11.356;2023-03-01T16:11:25;5.20;99.90
56761;DHT22;42633;44.494;11.356;2023-03-01T16:14:55;5.10;99.90
56761;DHT22;42633;44.494;11.356;2023-03-01T16:18:09;5.20;99.90
56761;DHT22;42633;44.494;11.356;2023-03-01T16:21:41;5.20;99.90
56761;DHT22;42633;44.494;11.356;2023-03-01T16:24:58;5.10;99.90
56761;DHT22;42633;44.494;11.356;2023-03-01T16:28:11;5.10;99.90
56761;DHT22;42633;44.494;11.356;2023-03-01T16:31:45;5.10;99.90
56761;DHT22;42633;44.494;11.356;2023-03-01T16:40:35;5.10;99.90
56761;DHT22;42633;44.494;11.356;2023-03-01T16:54:39;5.30;99.90
56761;DHT22;42633;44.494;11.356;2023-03-01T16:57:52;5.50;99.90
56761;DHT22;42633;44.494;11.356;2023-03-01T17:07:19;5.60;99.90
56761;DHT22;42633;44.494;11.356;2023-03-01T17:11:06;5.60;99.90
56761;DHT22;42633;44.494;11.356;2023-03-01T17:14:11;5.60;99.90
56761;DHT22;42633;44.494;11.356;2023-03-01T17:17:16;5.60;99.90
56761;DHT22;42633;44.494;11.356;2023-03-01T17:25:04;5.60;99.90
56761;DHT22;42633;44.494;11.356;2023-03-01T17:29:03;5.70;99.90
56761;DHT22;42633;44.494;11.356;2023-03-01T17:38:49;5.80;99.90
56761;DHT22;42633;44.494;11.356;2023-03-01T17:42:02;5.80;99.90
56761;DHT22;42633;44.494;11.356;2023-03-01T17:46:23;5.90;99.90
56761;DHT22;42633;44.494;11.356;2023-03-01T17:54:58;5.90;99.90
56761;DHT22;42633;44.494;11.356;2023-03-01T17:58:17;5.90;99.90
56761;DHT22;42633;44.494;11.356;2023-03-01T18:06:16;6.00;99.90
56761;DHT22;42633;44.494;11.356;2023-03-01T18:09:27;6.00;99.90
56761;DHT22;42633;44.494;11.356;2023-03-01T18:12:32;6.00;99.90
56761;DHT22;42633;44.494;11.356;2023-03-01T18:15:47;6.00;99.90
56761;DHT22;42633;44.494;11.356;2023-03-01T18:19:01;5.90;99.90
56761;DHT22;42633;44.494;11.356;2023-03-01T18:23:34;5.90;99.90
56761;DHT22;42633;44.494;11.356;2023-03-01T18:26:47;5.90;99.90
56761;DHT22;42633;44.494;11.356;2023-03-01T19:04:45;6.00;99.90
56761;DHT22;42633;44.494;11.356;2023-03-01T19:13:49;6.00;99.90
56761;DHT22;42633;44.494;11.356;2023-03-01T20:02:27;6.00;99.90
56761;DHT22;42633;44.494;11.356;2023-03-01T20:16:03;6.10;99.90
